Portada
METAR-TAF:

METAR-TAF

Aeropuertos :

Aeropuerto de Umiujaq

Umiujaq, Quebec, Canadá

latitud: 56-32N, longitud: 076-31W, altitud: 71 m

Observación

El informe se hizo hace 4 horas y 24 minutos, a las 21:00 UTC
Viento 13 kt del norte-noroeste
Temperatura 17°C
Humedad 52%
Presión 1022 hPa
Visibilidad: 24.1 km
Escasas nubes a una altura de 5500 ft

METAR: CYMU 212100Z 34013KT 15SM FEW055 17/07 A3018 RMK SC1 SC TR LAST OBS/NEXT 22 1200Z SLP224 DENSITY ALT 300FT

Hora: 21:24 (01:24 UTC)


TAF: falta

Observaciones y pronósticos meteorológicos de más de 4000 aeropuertos (mensajes METAR y TAF).

Los puntos amarillos y rojos representan las estaciones disponibles.

Ponga el ratón en el punto deseado para ver el nombre de la estación.

Haga clic para ver las observaciones y los pronósticos meteorológicos.

Para cambiar el mapa : haga clic en los botones verdes con una cruz de color negro para hacer un zoom, en el botón verde con un guión para alejar o en las flechas verdes para mapas adyacentes.


METAR-TAF: